< Typhoon 198920 1989 Season Typhoon 198922 >
Typhoon 198921 (VERA)
General InformationTrack Information on Google MapsDetailed Wind InformationList of All Images || Disaster Info.ResourceGoogle EarthGE AnimationAtom FeedGeoJSON
Detalied Best Track (Time Zone = UTC)
Year Month Day Hour Lat. Long. Pressure (hPa) Wind (kt) Class Image Chart
1989 9 11 06 18.7 146.7 1004 0 2 Image Chart
1989 9 11 12 17.9 147.2 1004 0 2 Image Chart
1989 9 11 18 17.0 146.6 1004 0 2 Image Chart
1989 9 12 00 17.1 145.5 1004 0 2 Image Chart
1989 9 12 06 17.6 144.7 1004 0 2 Image Chart
1989 9 12 12 18.1 143.6 1004 0 2 Image Chart
1989 9 12 18 19.0 141.5 1000 35 3 Image Chart
1989 9 13 00 20.2 139.5 994 40 3 Image Chart
1989 9 13 06 20.7 138.0 992 45 3 Image Chart
1989 9 13 12 21.3 136.3 990 45 3 Image Chart
1989 9 13 18 22.0 134.4 985 50 4 Image Chart
1989 9 14 00 22.6 132.4 985 50 4 Image Chart
1989 9 14 06 23.3 130.3 980 55 4 Image Chart
1989 9 14 12 24.1 128.4 980 55 4 Image Chart
1989 9 14 18 24.9 126.4 985 50 4 Image Chart
1989 9 15 00 26.1 124.7 990 45 3 Image Chart
1989 9 15 06 27.5 123.0 994 40 3 Image Chart
1989 9 15 12 28.3 121.8 998 35 3 Image Chart
1989 9 15 18 29.5 120.5 1004 0 2 Image Chart
1989 9 16 00 31.0 120.0 1006 0 2 Image Chart
1989 9 16 06 32.0 119.5 1006 0 2 Image Chart
1989 9 16 12 33.0 120.0 1006 0 6 Image Chart
1989 9 16 18 34.5 122.0 1006 0 6 Image Chart
1989 9 17 00 36.0 124.0 1004 0 6 Image Chart
1989 9 17 06 37.0 126.0 1002 0 6 Image Chart
1989 9 17 12 38.5 130.0 1002 0 6 Image Chart
1989 9 17 18 40.0 135.0 1000 0 6 Image Chart
1989 9 18 00 41.0 142.0 1000 0 6 Image Chart
1989 9 18 06 42.0 150.0 1000 0 6 Image Chart
1989 9 18 12 43.0 158.0 998 0 6 Image Chart
1989 9 18 18 44.0 163.0 992 0 6 Image Chart
1989 9 19 00 45.0 168.0 988 0 6 Image Chart
1989 9 19 06 46.5 173.5 980 0 6 Image Chart
1989 9 19 12 48.0 177.5 972 0 6 Image Chart
1989 9 19 18 48.5 180.5 964 0 6 Image Chart
Japan Meteorological Agency Best Track Data | Correction Date : 1992-10-21
< Typhoon 198920 1989 Season Typhoon 198922 >

Help